首页
METAR-TAF:

METAR-TAF

机场 :

哥伦布, 喬治亞, 美国

纬度: 32-30-58N, 经度: 084-56-32W, 海拔: 121米

当前天气观测

该预报发布于22分钟前的15:51 UTC
风速11节,风向
温度 13°C
湿度 67%
气压 1026 hPa
能見度: 16.1公里
散云层高于5500英尺
多云层高于8000英尺

METAR: KCSG 081551Z 10011KT 10SM SCT055 BKN080 13/07 A3030 RMK AO2 SLP259 T01330067

时间: 11:13 (16:13 UTC)

预报

该预报发布于4小时和45分钟前的11:28 UTC
预报有效从08日的 12点(UTC)到 09日的 12点(UTC)
风速8节,风向东转东南
能見度: 10公里
少量云层高于4000英尺
阴天层高于6000英尺
从 08日的 1400点(UTC)
风速9节,风向东转东南
能見度: 10公里
散云层高于4000英尺
多云层高于5000英尺
从 08日的 1700点(UTC)
风速9节,风向东转东南
能見度: 10公里
多云层高于3000英尺
从 09日的 0200点(UTC)
风速8节,风向东转东南
能見度: 10公里
阴天层高于2500英尺
几率 30%
从 09日的 08点(UTC)到 09日的 12点(UTC)
能見度: 9.7公里
阴天层高于1000英尺
小阵雨

TAF: KCSG 081128Z 0812/0912 11008KT P6SM FEW040 OVC060 FM081400 11009KT P6SM SCT040 BKN050 FM081700 11009KT P6SM BKN030 FM090200 11008KT P6SM OVC025 PROB30 0908/0912 6SM -SHRA OVC010

超过4000个机场的气象观测和天气预报(METAR&TAF报告)。

可查询的气象台以黄色和红色小点在地图上表示。

将鼠标移到小点上方,可查看气象台名称。

然后点击查看天气观测和预报。

如需切换地图:点击带黑十字的绿色按钮放大地图;点击带横线的绿色按钮缩小地图;或者点击绿色箭头查看邻近地区的地图。


METAR-TAF: